Time,TemperatureF,DewpointF,PressureIn,WindDirection,WindDirectionDegrees,WindSpeedMPH,WindSpeedGustMPH,Humidity,HourlyPrecipIn,Conditions,Clouds,dailyrainin,SoftwareType,DateUTC
2013-01-03 00:02:00,16.0,12.0,30.16,SSW,195,1.0,5.0,83,61.20,,,-99.99,,2013-01-03 06:02:00,
2013-01-03 00:12:00,16.0,12.0,30.16,SSW,195,1.0,5.0,83,61.20,,,-99.99,,2013-01-03 06:12:00,
2013-01-03 00:22:00,15.0,11.0,30.15,West,264,1.0,3.0,84,61.20,,,-99.99,,2013-01-03 06:22:00,
2013-01-03 00:32:00,15.0,11.0,30.15,West,264,1.0,3.0,84,61.20,,,-99.99,,2013-01-03 06:32:00,
2013-01-03 00:42:00,15.0,11.0,30.15,West,264,1.0,3.0,84,61.20,,,-99.99,,2013-01-03 06:42:00,
2013-01-03 00:52:00,15.0,11.0,30.14,WSW,243,1.0,6.0,84,61.20,,,-99.99,,2013-01-03 06:52:00,
2013-01-03 01:02:00,15.0,11.0,30.14,WSW,243,1.0,6.0,84,61.20,,,-99.99,,2013-01-03 07:02:00,
2013-01-03 01:12:00,15.0,11.0,30.14,WSW,243,1.0,6.0,84,61.20,,,-99.99,,2013-01-03 07:12:00,
2013-01-03 01:22:00,15.0,11.0,30.14,WSW,256,0.0,3.0,85,61.20,,,-99.99,,2013-01-03 07:22:00,
2013-01-03 01:32:00,15.0,11.0,30.14,West,270,0.0,2.0,85,61.20,,,-99.99,,2013-01-03 07:32:00,
2013-01-03 01:43:00,15.0,11.0,30.14,West,270,0.0,2.0,85,61.20,,,-99.99,,2013-01-03 07:43:00,
2013-01-03 01:53:00,15.0,11.0,30.14,WSW,250,0.0,4.0,85,61.20,,,-99.99,,2013-01-03 07:53:00,
2013-01-03 02:02:00,16.0,12.0,30.14,West,278,0.0,2.0,85,61.20,,,-99.99,,2013-01-03 08:02:00,
2013-01-03 02:12:00,16.0,12.0,30.14,West,278,0.0,2.0,85,61.20,,,-99.99,,2013-01-03 08:12:00,
2013-01-03 02:22:00,15.0,11.0,30.14,North,0,0.0,0.0,84,61.20,,,-99.99,,2013-01-03 08:22:00,
2013-01-03 02:32:00,15.0,11.0,30.14,WSW,243,0.0,1.0,83,61.20,,,-99.99,,2013-01-03 08:32:00,
2013-01-03 02:42:00,15.0,11.0,30.14,WSW,243,0.0,1.0,83,61.20,,,-99.99,,2013-01-03 08:42:00,
2013-01-03 02:53:00,15.0,11.0,30.14,WNW,291,0.0,3.0,83,61.20,,,-99.99,,2013-01-03 08:53:00,
2013-01-03 03:02:00,16.0,11.0,30.15,WNW,298,0.0,3.0,82,61.20,,,-99.99,,2013-01-03 09:02:00,
2013-01-03 03:12:00,16.0,11.0,30.15,WNW,298,0.0,3.0,82,61.20,,,-99.99,,2013-01-03 09:12:00,
2013-01-03 03:22:00,16.0,12.0,30.15,North,0,0.0,0.0,83,61.20,,,-99.99,,2013-01-03 09:22:00,
2013-01-03 03:33:00,16.0,12.0,30.14,NW,312,1.0,7.0,83,61.20,,,-99.99,,2013-01-03 09:33:00,
2013-01-03 03:42:00,16.0,12.0,30.14,NW,312,1.0,7.0,83,61.20,,,-99.99,,2013-01-03 09:42:00,
2013-01-03 03:52:00,17.0,13.0,30.14,SSE,162,0.0,1.0,83,61.20,,,-99.99,,2013-01-03 09:52:00,
2013-01-03 04:02:00,18.0,14.0,30.14,West,280,1.0,5.0,84,61.20,,,-99.99,,2013-01-03 10:02:00,
2013-01-03 04:12:00,18.0,14.0,30.14,West,280,1.0,5.0,84,61.20,,,-99.99,,2013-01-03 10:12:00,
2013-01-03 04:22:00,18.0,14.0,30.15,West,267,1.0,4.0,85,61.20,,,-99.99,,2013-01-03 10:22:00,
2013-01-03 04:32:00,19.0,15.0,30.15,West,274,1.0,4.0,85,61.20,,,-99.99,,2013-01-03 10:32:00,
2013-01-03 04:42:00,19.0,15.0,30.15,West,274,1.0,4.0,85,61.20,,,-99.99,,2013-01-03 10:42:00,
2013-01-03 04:52:00,19.0,15.0,30.16,NW,318,1.0,4.0,85,61.20,,,-99.99,,2013-01-03 10:52:00,
2013-01-03 05:02:00,19.0,16.0,30.16,WNW,301,1.0,5.0,86,61.20,,,-99.99,,2013-01-03 11:02:00,
2013-01-03 05:12:00,19.0,16.0,30.16,WNW,301,1.0,5.0,86,61.20,,,-99.99,,2013-01-03 11:12:00,
2013-01-03 05:22:00,19.0,16.0,30.16,NW,312,3.0,7.0,86,61.20,,,-99.99,,2013-01-03 11:22:00,
2013-01-03 05:33:00,18.0,15.0,30.16,NW,315,3.0,7.0,87,61.20,,,-99.99,,2013-01-03 11:33:00,
2013-01-03 05:42:00,18.0,15.0,30.16,NW,315,3.0,7.0,87,61.20,,,-99.99,,2013-01-03 11:42:00,
2013-01-03 05:53:00,18.0,15.0,30.16,WNW,288,2.0,5.0,88,61.20,,,-99.99,,2013-01-03 11:53:00,
2013-01-03 06:02:00,19.0,16.0,30.17,WNW,295,3.0,7.0,88,61.20,,,-99.99,,2013-01-03 12:02:00,
2013-01-03 06:12:00,19.0,16.0,30.17,WNW,295,3.0,7.0,88,61.20,,,-99.99,,2013-01-03 12:12:00,
2013-01-03 06:22:00,19.0,16.0,30.16,WNW,294,3.0,6.0,88,61.20,,,-99.99,,2013-01-03 12:22:00,
2013-01-03 06:32:00,18.0,15.0,30.16,WNW,294,4.0,9.0,89,61.20,,,-99.99,,2013-01-03 12:32:00,
2013-01-03 06:42:00,18.0,15.0,30.16,WNW,294,4.0,9.0,89,61.20,,,-99.99,,2013-01-03 12:42:00,
2013-01-03 06:52:00,18.0,15.0,30.16,WNW,294,0.0,4.0,89,61.20,,,-99.99,,2013-01-03 12:52:00,
2013-01-03 07:02:00,18.0,15.0,30.16,WSW,243,1.0,3.0,89,61.20,,,-99.99,,2013-01-03 13:02:00,
2013-01-03 07:12:00,18.0,15.0,30.16,WSW,243,1.0,3.0,89,61.20,,,-99.99,,2013-01-03 13:12:00,
2013-01-03 07:22:00,17.0,15.0,30.16,West,273,1.0,4.0,90,61.20,,,-99.99,,2013-01-03 13:22:00,
2013-01-03 07:32:00,17.0,15.0,30.17,WNW,293,2.0,4.0,90,61.20,,,-99.99,,2013-01-03 13:32:00,
2013-01-03 07:42:00,17.0,15.0,30.17,WNW,293,2.0,4.0,90,61.20,,,-99.99,,2013-01-03 13:42:00,
2013-01-03 07:53:00,17.0,15.0,30.17,WNW,298,0.0,1.0,91,61.20,,,-99.99,,2013-01-03 13:53:00,
2013-01-03 08:02:00,16.0,14.0,30.17,West,276,0.0,2.0,91,61.20,,,-99.99,,2013-01-03 14:02:00,
2013-01-03 08:12:00,16.0,14.0,30.17,West,276,0.0,2.0,91,61.20,,,-99.99,,2013-01-03 14:12:00,
2013-01-03 08:22:00,17.0,15.0,30.18,WNW,294,1.0,4.0,92,61.20,,,-99.99,,2013-01-03 14:22:00,
2013-01-03 08:32:00,19.0,17.0,30.19,WNW,285,5.0,8.0,92,61.20,,,-99.99,,2013-01-03 14:32:00,
2013-01-03 08:42:00,19.0,17.0,30.19,WNW,285,5.0,8.0,92,61.20,,,-99.99,,2013-01-03 14:42:00,
2013-01-03 08:53:00,19.0,17.0,30.19,WNW,298,2.0,7.0,91,61.20,,,-99.99,,2013-01-03 14:53:00,
2013-01-03 09:03:00,20.0,18.0,30.19,NW,308,2.0,6.0,91,61.20,,,-99.99,,2013-01-03 15:03:00,
2013-01-03 09:12:00,21.0,19.0,30.20,WNW,301,4.0,7.0,91,61.20,,,-99.99,,2013-01-03 15:12:00,
2013-01-03 09:22:00,21.0,19.0,30.20,WNW,301,4.0,7.0,91,61.20,,,-99.99,,2013-01-03 15:22:00,
2013-01-03 09:33:00,21.0,19.0,30.20,WNW,287,4.0,8.0,91,61.20,,,-99.99,,2013-01-03 15:33:00,
2013-01-03 09:42:00,21.0,19.0,30.20,WNW,287,4.0,8.0,91,61.20,,,-99.99,,2013-01-03 15:42:00,
2013-01-03 09:53:00,22.0,20.0,30.21,WNW,285,3.0,8.0,90,61.20,,,-99.99,,2013-01-03 15:53:00,
2013-01-03 10:03:00,23.0,21.0,30.21,NW,322,1.0,4.0,91,61.20,,,-99.99,,2013-01-03 16:03:00,
2013-01-03 10:12:00,23.0,21.0,30.21,NW,322,1.0,4.0,91,61.20,,,-99.99,,2013-01-03 16:12:00,
2013-01-03 10:22:00,24.0,22.0,30.22,West,281,2.0,7.0,91,61.20,,,-99.99,,2013-01-03 16:22:00,
2013-01-03 10:33:00,25.0,23.0,30.22,West,264,2.0,6.0,91,61.20,,,-99.99,,2013-01-03 16:33:00,
2013-01-03 10:43:00,25.0,23.0,30.22,West,264,2.0,6.0,91,61.20,,,-99.99,,2013-01-03 16:43:00,
2013-01-03 10:52:00,26.0,24.0,30.22,WNW,288,3.0,7.0,92,61.20,,,-99.99,,2013-01-03 16:52:00,
2013-01-03 11:03:00,27.0,25.0,30.21,West,280,3.0,10.0,91,61.20,,,-99.99,,2013-01-03 17:03:00,
2013-01-03 11:12:00,27.0,25.0,30.21,West,280,3.0,10.0,91,61.20,,,-99.99,,2013-01-03 17:12:00,
2013-01-03 11:22:00,28.0,26.0,30.22,WNW,290,4.0,9.0,91,61.20,,,-99.99,,2013-01-03 17:22:00,
2013-01-03 11:33:00,28.0,25.0,30.21,WNW,301,3.0,6.0,90,61.20,,,-99.99,,2013-01-03 17:33:00,
2013-01-03 11:43:00,28.0,25.0,30.21,WNW,301,3.0,6.0,90,61.20,,,-99.99,,2013-01-03 17:43:00,
2013-01-03 11:53:00,28.0,25.0,30.21,WNW,295,6.0,12.0,90,61.20,,,-99.99,,2013-01-03 17:53:00,
2013-01-03 12:03:00,28.0,25.0,30.20,WNW,287,3.0,10.0,90,61.20,,,-99.99,,2013-01-03 18:03:00,
2013-01-03 12:13:00,28.0,25.0,30.20,WNW,287,3.0,10.0,90,61.20,,,-99.99,,2013-01-03 18:13:00,
2013-01-03 12:22:00,29.0,26.0,30.20,NW,319,4.0,8.0,90,61.20,,,-99.99,,2013-01-03 18:22:00,
2013-01-03 12:33:00,29.0,26.0,30.20,WNW,294,6.0,12.0,90,61.20,,,-99.99,,2013-01-03 18:33:00,
2013-01-03 12:42:00,29.0,26.0,30.20,WNW,294,6.0,12.0,90,61.20,,,-99.99,,2013-01-03 18:42:00,
2013-01-03 12:53:00,29.0,26.0,30.20,West,280,5.0,11.0,90,61.20,,,-99.99,,2013-01-03 18:53:00,
2013-01-03 13:03:00,29.0,26.0,30.20,West,276,4.0,10.0,90,61.20,,,-99.99,,2013-01-03 19:03:00,
2013-01-03 13:12:00,29.0,26.0,30.20,West,276,4.0,10.0,90,61.20,,,-99.99,,2013-01-03 19:12:00,
2013-01-03 13:55:00,30.0,27.0,30.20,WNW,287,4.0,10.0,89,61.20,,,-99.99,,2013-01-03 19:55:00,
2013-01-03 14:02:00,31.0,28.0,30.20,West,274,3.0,10.0,89,61.20,,,-99.99,,2013-01-03 20:02:00,
2013-01-03 14:12:00,31.0,28.0,30.20,West,274,3.0,10.0,89,61.20,,,-99.99,,2013-01-03 20:12:00,
2013-01-03 14:22:00,31.0,28.0,30.20,West,274,6.0,13.0,89,61.20,,,-99.99,,2013-01-03 20:22:00,
2013-01-03 14:33:00,31.0,28.0,30.20,WNW,283,5.0,12.0,89,61.20,,,-99.99,,2013-01-03 20:33:00,
2013-01-03 14:42:00,31.0,28.0,30.20,WNW,283,5.0,12.0,89,61.20,,,-99.99,,2013-01-03 20:42:00,
2013-01-03 14:53:00,31.0,28.0,30.21,West,281,4.0,9.0,89,61.20,,,-99.99,,2013-01-03 20:53:00,
2013-01-03 15:02:00,31.0,28.0,30.22,WNW,283,6.0,12.0,89,61.20,,,-99.99,,2013-01-03 21:02:00,
2013-01-03 15:12:00,31.0,28.0,30.22,WNW,283,6.0,12.0,89,61.20,,,-99.99,,2013-01-03 21:12:00,
2013-01-03 15:35:00,31.0,28.0,30.22,West,276,3.0,9.0,89,61.20,,,-99.99,,2013-01-03 21:35:00,
2013-01-03 15:47:00,31.0,28.0,30.22,West,276,3.0,9.0,89,61.20,,,-99.99,,2013-01-03 21:47:00,
2013-01-03 15:53:00,31.0,28.0,30.23,WNW,284,3.0,9.0,90,61.20,,,-99.99,,2013-01-03 21:53:00,
2013-01-03 16:02:00,31.0,28.0,30.23,West,281,3.0,9.0,90,61.20,,,-99.99,,2013-01-03 22:02:00,
2013-01-03 16:12:00,31.0,28.0,30.23,West,281,3.0,9.0,90,61.20,,,-99.99,,2013-01-03 22:12:00,
2013-01-03 16:22:00,31.0,28.0,30.23,West,281,3.0,7.0,90,61.20,,,-99.99,,2013-01-03 22:22:00,
2013-01-03 16:32:00,31.0,29.0,30.23,West,276,2.0,5.0,91,61.20,,,-99.99,,2013-01-03 22:32:00,
2013-01-03 16:42:00,31.0,29.0,30.23,West,276,2.0,5.0,91,61.20,,,-99.99,,2013-01-03 22:42:00,
2013-01-03 16:52:00,31.0,29.0,30.24,WNW,297,3.0,8.0,91,61.20,,,-99.99,,2013-01-03 22:52:00,
2013-01-03 17:02:00,31.0,29.0,30.24,WNW,283,5.0,9.0,92,61.20,,,-99.99,,2013-01-03 23:02:00,
2013-01-03 17:12:00,31.0,29.0,30.24,WNW,283,5.0,9.0,92,61.20,,,-99.99,,2013-01-03 23:12:00,
2013-01-03 17:22:00,31.0,29.0,30.24,WNW,291,3.0,9.0,92,61.20,,,-99.99,,2013-01-03 23:22:00,
2013-01-03 17:32:00,31.0,29.0,30.24,WNW,287,4.0,11.0,92,61.20,,,-99.99,,2013-01-03 23:32:00,
2013-01-03 17:42:00,31.0,29.0,30.24,WNW,287,4.0,11.0,92,61.20,,,-99.99,,2013-01-03 23:42:00,
2013-01-03 17:53:00,31.0,29.0,30.24,West,276,3.0,7.0,93,61.20,,,-99.99,,2013-01-03 23:53:00,
2013-01-03 18:03:00,31.0,29.0,30.25,WNW,294,4.0,9.0,94,61.20,,,-99.99,,2013-01-04 00:03:00,
2013-01-03 18:12:00,31.0,29.0,30.25,WNW,294,4.0,9.0,94,61.20,,,-99.99,,2013-01-04 00:12:00,
2013-01-03 18:22:00,31.0,29.0,30.25,WNW,290,2.0,6.0,94,61.20,,,-99.99,,2013-01-04 00:22:00,
2013-01-03 18:32:00,31.0,30.0,30.25,West,280,3.0,7.0,95,61.20,,,-99.99,,2013-01-04 00:32:00,
2013-01-03 18:42:00,31.0,30.0,30.25,West,280,3.0,7.0,95,61.20,,,-99.99,,2013-01-04 00:42:00,
2013-01-03 18:53:00,31.0,30.0,30.25,WNW,284,3.0,7.0,95,61.20,,,-99.99,,2013-01-04 00:53:00,
2013-01-03 19:02:00,31.0,30.0,30.25,WNW,283,1.0,4.0,95,61.20,,,-99.99,,2013-01-04 01:02:00,
2013-01-03 19:12:00,31.0,30.0,30.25,WNW,283,1.0,4.0,95,61.20,,,-99.99,,2013-01-04 01:12:00,
2013-01-03 19:22:00,31.0,29.0,30.26,NW,312,2.0,6.0,92,61.20,,,-99.99,,2013-01-04 01:22:00,
2013-01-03 19:32:00,31.0,29.0,30.27,NW,326,0.0,3.0,91,61.20,,,-99.99,,2013-01-04 01:32:00,
2013-01-03 19:42:00,31.0,29.0,30.27,NW,326,0.0,3.0,91,61.20,,,-99.99,,2013-01-04 01:42:00,
2013-01-03 19:52:00,30.0,26.0,30.27,North,350,4.0,10.0,86,61.20,,,-99.99,,2013-01-04 01:52:00,
2013-01-03 20:02:00,29.0,25.0,30.28,WNW,284,4.0,11.0,84,61.20,,,-99.99,,2013-01-04 02:02:00,
2013-01-03 20:12:00,29.0,25.0,30.28,WNW,284,4.0,11.0,84,61.20,,,-99.99,,2013-01-04 02:12:00,
2013-01-03 20:22:00,29.0,25.0,30.28,North,359,3.0,7.0,84,61.20,,,-99.99,,2013-01-04 02:22:00,
2013-01-03 20:32:00,28.0,24.0,30.28,North,1,4.0,10.0,84,61.20,,,-99.99,,2013-01-04 02:32:00,
2013-01-03 20:42:00,28.0,24.0,30.28,North,1,4.0,10.0,84,61.20,,,-99.99,,2013-01-04 02:42:00,
2013-01-03 20:53:00,28.0,24.0,30.28,WNW,301,2.0,7.0,84,61.20,,,-99.99,,2013-01-04 02:53:00,
2013-01-03 21:02:00,28.0,24.0,30.28,NW,311,1.0,7.0,86,61.20,,,-99.99,,2013-01-04 03:02:00,
2013-01-03 21:12:00,28.0,24.0,30.28,NW,311,1.0,7.0,86,61.20,,,-99.99,,2013-01-04 03:12:00,
2013-01-03 21:22:00,27.0,23.0,30.28,North,350,2.0,7.0,86,61.20,,,-99.99,,2013-01-04 03:22:00,
2013-01-03 21:32:00,26.0,22.0,30.29,North,3,2.0,6.0,85,61.20,,,-99.99,,2013-01-04 03:32:00,
2013-01-03 21:42:00,26.0,22.0,30.29,North,3,2.0,6.0,85,61.20,,,-99.99,,2013-01-04 03:42:00,
2013-01-03 21:53:00,25.0,21.0,30.29,WNW,298,1.0,4.0,85,61.20,,,-99.99,,2013-01-04 03:53:00,
2013-01-03 22:02:00,25.0,21.0,30.29,WNW,301,3.0,7.0,85,61.20,,,-99.99,,2013-01-04 04:02:00,
2013-01-03 22:12:00,25.0,21.0,30.29,WNW,301,3.0,7.0,85,61.20,,,-99.99,,2013-01-04 04:12:00,
2013-01-03 22:22:00,24.0,20.0,30.29,WNW,291,2.0,9.0,86,61.20,,,-99.99,,2013-01-04 04:22:00,
2013-01-03 22:32:00,23.0,20.0,30.29,WNW,283,2.0,4.0,87,61.20,,,-99.99,,2013-01-04 04:32:00,
2013-01-03 22:42:00,23.0,20.0,30.29,WNW,283,2.0,4.0,87,61.20,,,-99.99,,2013-01-04 04:42:00,
2013-01-03 22:52:00,22.0,19.0,30.29,WNW,300,1.0,5.0,89,61.20,,,-99.99,,2013-01-04 04:52:00,
2013-01-03 23:03:00,22.0,19.0,30.29,West,278,1.0,5.0,89,61.20,,,-99.99,,2013-01-04 05:03:00,
2013-01-03 23:12:00,22.0,19.0,30.29,West,278,1.0,5.0,89,61.20,,,-99.99,,2013-01-04 05:12:00,
2013-01-03 23:22:00,22.0,19.0,30.28,WNW,290,2.0,6.0,89,61.20,,,-99.99,,2013-01-04 05:22:00,
2013-01-03 23:33:00,21.0,19.0,30.29,WNW,284,3.0,5.0,90,61.20,,,-99.99,,2013-01-04 05:33:00,
2013-01-03 23:42:00,21.0,19.0,30.29,WNW,284,3.0,5.0,90,61.20,,,-99.99,,2013-01-04 05:42:00,
2013-01-03 23:53:00,21.0,19.0,30.28,West,280,2.0,7.0,90,61.20,,,-99.99,,2013-01-04 05:53:00,